Darstellungsparameter: Aktuell verwendete Einstellungen:
Skalierung der Graphiken ... ?
xyx+y,   Skalierungsfaktor:      Skalierung: Modus: x, Faktor: 1
Darstellungszeitraum ... ?
Vom - - bis: - -   Zeitraum: 26.10.2010 - 28.10.2010
Min/Max/Avg-Anzeige ... ?
Zeige MMA aktuell
Zeige MMA Monat
Zeige MMA alles
Zeige --A aktuell
Zeige --A Monat
Zeige --A alles
Keine MMA-Anzeige
MMA:
Average (ber die Originaldaten)
MMA-Basis: 26.10.2010 - 28.10.2010
Quicknavigation für Darstellung... ?
Tage:      1T, 2T, 3T, 5T -1T -2T -3T -5T +1T +2T +3T +5T
Wochen: 1W, 2W, 3W -1W -2W -3W +1W +2W +3W
Monate: 1M, 3M, 6M -1M -3M -6M +1M +3M +6M
Jahre:    1J, 3J, 5J, 10J -1J -3J -5J -10J +1J +3J +5J +10J
Nutze für die Darstellung ... ?
Originaldaten oder Mittelwerte auf ...
Stundenbasis Tagesbasis Wochenbasis
Monatsbasis Jahresbasis      Datenbasis: Original-Daten
Darstellen als:
Statistik (Auto) Statistik J:M      Darstellung:
Zur Graphik,    zurück zur Übersicht aller Sensoren.
 
Tabellarische Datenbersicht: ?
 
Sensor: Nr:Datum:Temp:Abs-Feuchte:Windchill:Wind:
Aussen-T/F 1 26-10-2010 00:01:02 2.2 C 4.84 g/m*3 2.2 C 0 km/h
2 26-10-2010 00:13:02 2 C 4.78 g/m*3 2 C 0 km/h
3 26-10-2010 00:25:01 1.8 C 4.77 g/m*3 1.8 C 0 km/h
4 26-10-2010 00:37:01 1.7 C 4.74 g/m*3 1.7 C 0 km/h
5 26-10-2010 00:49:02 1.7 C 4.79 g/m*3 1.7 C 0 km/h
6 26-10-2010 01:01:01 1.6 C 4.76 g/m*3 1.6 C 0 km/h
7 26-10-2010 01:13:01 1.6 C 4.81 g/m*3 1.6 C 0 km/h
8 26-10-2010 01:25:02 1.6 C 4.81 g/m*3 1.6 C 0 km/h
9 26-10-2010 01:37:02 1.4 C 4.75 g/m*3 1.4 C 0 km/h
10 26-10-2010 01:49:01 1.2 C 4.68 g/m*3 1.2 C 0 km/h
11 26-10-2010 02:01:02 1 C 4.62 g/m*3 1 C 0 km/h
12 26-10-2010 02:13:02 0.8 C 4.61 g/m*3 0.8 C 0 km/h
13 26-10-2010 02:25:01 0.7 C 4.63 g/m*3 0.7 C 0 km/h
14 26-10-2010 02:37:01 0.8 C 4.66 g/m*3 0.8 C 0 km/h
15 26-10-2010 02:50:03 0.8 C 4.71 g/m*3 0.8 C 0 km/h
16 26-10-2010 03:02:03 0.7 C 4.63 g/m*3 0.7 C 0 km/h
17 26-10-2010 03:14:04 0.4 C 4.53 g/m*3 0.4 C 0 km/h
18 26-10-2010 03:26:04 0.3 C 4.5 g/m*3 0.3 C 0 km/h
19 26-10-2010 03:38:02 0.1 C 4.44 g/m*3 0.1 C 0 km/h
20 26-10-2010 03:50:02 0 C 4.41 g/m*3 0 C 0 km/h
21 26-10-2010 04:02:02 0.1 C 4.49 g/m*3 0.1 C 0 km/h
22 26-10-2010 04:14:02 0.1 C 4.49 g/m*3 0.1 C 0 km/h
23 26-10-2010 04:26:02 0.2 C 4.52 g/m*3 0.2 C 0 km/h
24 26-10-2010 04:38:02 0.1 C 4.54 g/m*3 0.1 C 0 km/h
25 26-10-2010 04:50:02 0.1 C 4.54 g/m*3 0.1 C 0 km/h
Sensor: Nr:Datum:Temp:Abs-Feuchte:Windchill:Wind:
Aussen-T/F 26 26-10-2010 05:02:02 0.1 C 4.54 g/m*3 0.1 C 0 km/h
27 26-10-2010 05:14:02 0 C 4.51 g/m*3 0 C 0 km/h
28 26-10-2010 05:26:02 0.1 C 4.59 g/m*3 0.1 C 0 km/h
29 26-10-2010 05:38:02 0.1 C 4.59 g/m*3 0.1 C 0 km/h
30 26-10-2010 05:50:01 0.1 C 4.59 g/m*3 0.1 C 0 km/h
31 26-10-2010 06:02:01 0.2 C 4.62 g/m*3 0.2 C 0 km/h
32 26-10-2010 06:14:01 0.2 C 4.62 g/m*3 0.2 C 0 km/h
33 26-10-2010 06:26:01 0.2 C 4.62 g/m*3 0.2 C 0 km/h
34 26-10-2010 06:38:01 0.2 C 4.62 g/m*3 0.2 C 0 km/h
35 26-10-2010 06:50:01 -0.1 C 4.52 g/m*3 -0.1 C 0 km/h
36 26-10-2010 07:02:01 -0.1 C 4.52 g/m*3 -0.1 C 0 km/h
37 26-10-2010 07:14:01 -0.2 C 4.49 g/m*3 -0.2 C 0 km/h
38 26-10-2010 07:26:02 -0.3 C 4.46 g/m*3 -0.3 C 0 km/h
39 26-10-2010 07:38:01 -0.5 C 4.4 g/m*3 -0.5 C 0 km/h
40 26-10-2010 07:50:02 -0.5 C 4.4 g/m*3 -0.5 C 0 km/h
41 26-10-2010 08:02:02 -0.5 C 4.4 g/m*3 -0.5 C 0 km/h
42 26-10-2010 08:14:02 -0.5 C 4.4 g/m*3 -0.5 C 0 km/h
43 26-10-2010 08:26:03 -0.4 C 4.43 g/m*3 -0.4 C 0 km/h
44 26-10-2010 08:38:02 -0.4 C 4.43 g/m*3 -0.4 C 0 km/h
45 26-10-2010 08:50:02 -0.3 C 4.46 g/m*3 -0.3 C 0 km/h
46 26-10-2010 09:02:02 -0.1 C 4.52 g/m*3 -0.1 C 0 km/h
47 26-10-2010 09:14:02 -0.3 C 4.46 g/m*3 -0.3 C 0 km/h
48 26-10-2010 09:26:02 -0.5 C 4.4 g/m*3 -0.5 C 0 km/h
49 26-10-2010 09:38:02 -0.5 C 4.4 g/m*3 -0.5 C 0 km/h
50 26-10-2010 09:50:02 -0.4 C 4.43 g/m*3 -0.4 C 0 km/h
Sensor: Nr:Datum:Temp:Abs-Feuchte:Windchill:Wind:
Aussen-T/F 51 26-10-2010 10:02:01 -0.3 C 4.46 g/m*3 -0.3 C 0 km/h
52 26-10-2010 10:14:01 -0.1 C 4.52 g/m*3 -0.1 C 0 km/h
53 26-10-2010 10:26:02 0.1 C 4.59 g/m*3 0.1 C 0 km/h
54 26-10-2010 10:38:01 0.3 C 4.65 g/m*3 0.3 C 0 km/h
55 26-10-2010 10:50:03 0.5 C 4.66 g/m*3 0.5 C 0 km/h
56 26-10-2010 11:02:02 0.8 C 4.76 g/m*3 0.8 C 0 km/h
57 26-10-2010 11:14:02 0.8 C 4.71 g/m*3 0.8 C 0 km/h
58 26-10-2010 11:26:02 1.1 C 4.76 g/m*3 1.1 C 0 km/h
59 26-10-2010 11:38:03 1.5 C 4.89 g/m*3 1.5 C 0 km/h
60 26-10-2010 11:50:02 1.9 C 4.97 g/m*3 1.9 C 0 km/h
61 26-10-2010 12:02:01 2.1 C 4.92 g/m*3 2.1 C 0 km/h
62 26-10-2010 12:14:01 2.9 C 5.2 g/m*3 2.9 C 0 km/h
63 26-10-2010 12:26:02 3.4 C 5.31 g/m*3 3.4 C 0 km/h
64 26-10-2010 12:38:02 3.4 C 5.19 g/m*3 3.4 C 0 km/h
65 26-10-2010 12:50:02 4 C 5.34 g/m*3 4 C 0 km/h
66 26-10-2010 13:02:02 4.3 C 5.38 g/m*3 4.3 C 0 km/h
67 26-10-2010 13:14:02 4.7 C 5.53 g/m*3 4.7 C 0 km/h
68 26-10-2010 13:26:02 5.5 C 5.69 g/m*3 5.5 C 0 km/h
69 26-10-2010 13:38:02 6.2 C 5.74 g/m*3 6.2 C 0 km/h
70 26-10-2010 13:50:02 7 C 5.66 g/m*3 7 C 0 km/h
71 26-10-2010 14:02:03 7.8 C 5.71 g/m*3 7.8 C 0 km/h
72 26-10-2010 14:14:03 8.4 C 5.51 g/m*3 8.4 C 0 km/h
73 26-10-2010 14:26:02 9.1 C 5.5 g/m*3 9.1 C 0 km/h
74 26-10-2010 14:38:02 9.5 C 5.46 g/m*3 9.5 C 0 km/h
75 26-10-2010 14:50:01 9.6 C 5.31 g/m*3 9.6 C 0 km/h
Sensor: Nr:Datum:Temp:Abs-Feuchte:Windchill:Wind:
Aussen-T/F 76 26-10-2010 15:02:01 9.5 C 5.19 g/m*3 9.5 C 0 km/h
77 26-10-2010 15:14:01 9.4 C 5.25 g/m*3 9.4 C 0 km/h
78 26-10-2010 15:26:01 9.6 C 5.4 g/m*3 9.6 C 0 km/h
79 26-10-2010 15:38:01 10 C 5.26 g/m*3 10 C 0 km/h
80 26-10-2010 15:50:02 10.1 C 5.3 g/m*3 10.1 C 0 km/h
81 26-10-2010 16:02:02 9.9 C 5.32 g/m*3 9.9 C 0 km/h
82 26-10-2010 16:14:02 9.6 C 5.31 g/m*3 9.6 C 0 km/h
83 26-10-2010 16:26:03 9.3 C 5.39 g/m*3 9.3 C 0 km/h
84 26-10-2010 16:38:02 8.9 C 5.43 g/m*3 8.9 C 0 km/h
85 26-10-2010 16:50:02 8.5 C 5.55 g/m*3 8.5 C 0 km/h
86 26-10-2010 17:02:02 8.4 C 5.68 g/m*3 8.4 C 0 km/h
87 26-10-2010 17:14:02 8.2 C 5.61 g/m*3 8.2 C 0 km/h
88 26-10-2010 17:26:02 8 C 5.62 g/m*3 8 C 0 km/h
89 26-10-2010 17:38:02 7.9 C 5.75 g/m*3 7.9 C 0 km/h
90 26-10-2010 17:50:02 7.7 C 5.76 g/m*3 7.7 C 0 km/h
91 26-10-2010 18:02:01 7.4 C 5.65 g/m*3 7.4 C 0 km/h
92 26-10-2010 18:14:01 7.2 C 5.65 g/m*3 7.2 C 0 km/h
93 26-10-2010 18:26:02 7.1 C 5.62 g/m*3 7.1 C 0 km/h
94 26-10-2010 18:38:02 6.9 C 5.62 g/m*3 6.9 C 0 km/h
95 26-10-2010 18:50:02 6.8 C 5.66 g/m*3 6.8 C 0 km/h
96 26-10-2010 19:02:03 6.8 C 5.66 g/m*3 6.8 C 0 km/h
97 26-10-2010 19:14:03 6.6 C 5.66 g/m*3 6.6 C 0 km/h
98 26-10-2010 19:26:02 6.6 C 5.74 g/m*3 6.6 C 0 km/h
99 26-10-2010 19:38:02 6.5 C 5.7 g/m*3 6.5 C 0 km/h
100 26-10-2010 19:50:01 6.4 C 5.66 g/m*3 6.4 C 0 km/h
Sensor: Nr:Datum:Temp:Abs-Feuchte:Windchill:Wind:
Aussen-T/F 101 26-10-2010 20:02:02 6.4 C 5.66 g/m*3 6.4 C 0 km/h
102 26-10-2010 20:14:02 6.4 C 5.66 g/m*3 6.4 C 0 km/h
103 26-10-2010 20:26:01 6.4 C 5.66 g/m*3 6.4 C 0 km/h
104 26-10-2010 20:38:02 6.3 C 5.63 g/m*3 6.3 C 0 km/h
105 26-10-2010 20:50:02 6.2 C 5.66 g/m*3 6.2 C 0 km/h
106 26-10-2010 21:02:02 6.1 C 5.63 g/m*3 6.1 C 0 km/h
107 26-10-2010 21:14:02 6.1 C 5.63 g/m*3 6.1 C 0 km/h
108 26-10-2010 21:26:01 6.2 C 5.52 g/m*3 6.2 C 0 km/h
109 26-10-2010 21:38:02 6 C 5.52 g/m*3 6 C 0 km/h
110 26-10-2010 21:50:01 5.9 C 5.62 g/m*3 5.9 C 0 km/h
111 26-10-2010 22:02:02 5.7 C 5.62 g/m*3 5.7 C 0 km/h
112 26-10-2010 22:14:02 5.7 C 5.69 g/m*3 5.7 C 0 km/h
113 26-10-2010 22:26:02 5.7 C 5.69 g/m*3 5.7 C 0 km/h
114 26-10-2010 22:39:02 5.7 C 5.76 g/m*3 5.7 C 0 km/h
115 26-10-2010 22:51:02 5.7 C 5.76 g/m*3 5.7 C 0 km/h
116 26-10-2010 23:03:02 5.7 C 5.76 g/m*3 5.7 C 0 km/h
117 26-10-2010 23:15:02 5.7 C 5.76 g/m*3 5.7 C 0 km/h
118 26-10-2010 23:27:02 5.7 C 5.76 g/m*3 5.7 C 0 km/h
119 26-10-2010 23:39:02 5.5 C 5.69 g/m*3 5.5 C 0 km/h
120 26-10-2010 23:51:02 5.4 C 5.65 g/m*3 5.4 C 0 km/h
121 27-10-2010 00:03:02 5.4 C 5.72 g/m*3 5.4 C 0 km/h
122 27-10-2010 00:15:02 5.4 C 5.72 g/m*3 5.4 C 0 km/h
123 27-10-2010 00:27:02 5.2 C 5.58 g/m*3 5.2 C 0 km/h
124 27-10-2010 00:39:02 5 C 5.5 g/m*3 5 C 0 km/h
125 27-10-2010 00:51:02 4.8 C 5.5 g/m*3 4.8 C 0 km/h
Sensor: Nr:Datum:Temp:Abs-Feuchte:Windchill:Wind:
Aussen-T/F 126 27-10-2010 01:03:02 5.1 C 5.34 g/m*3 5.1 C 0 km/h
127 27-10-2010 01:15:03 5.2 C 5.23 g/m*3 5.2 C 0 km/h
128 27-10-2010 01:27:03 5.3 C 5.2 g/m*3 5.3 C 0 km/h
129 27-10-2010 01:39:03 5.5 C 5.06 g/m*3 5.5 C 0 km/h
130 27-10-2010 01:51:03 5.7 C 4.84 g/m*3 5.7 C 0 km/h
131 27-10-2010 02:03:03 5.7 C 4.91 g/m*3 5.7 C 0 km/h
132 27-10-2010 02:15:03 5.5 C 5.06 g/m*3 5.5 C 0 km/h
133 27-10-2010 02:27:03 5.6 C 5.16 g/m*3 5.6 C 0 km/h
134 27-10-2010 02:39:03 5.5 C 5.2 g/m*3 5.5 C 0 km/h
135 27-10-2010 02:51:03 5.4 C 5.23 g/m*3 5.4 C 0 km/h
136 27-10-2010 03:03:03 5.6 C 5.23 g/m*3 5.6 C 0 km/h
137 27-10-2010 03:15:03 5.6 C 5.3 g/m*3 5.6 C 0 km/h
138 27-10-2010 03:27:03 5.4 C 5.23 g/m*3 5.4 C 0 km/h
139 27-10-2010 03:39:03 5.4 C 5.3 g/m*3 5.4 C 0 km/h
140 27-10-2010 03:51:03 5.4 C 5.23 g/m*3 5.4 C 0 km/h
141 27-10-2010 04:03:03 5.4 C 5.23 g/m*3 5.4 C 0 km/h
142 27-10-2010 04:15:03 5.4 C 5.23 g/m*3 5.4 C 0 km/h
143 27-10-2010 04:27:03 5.4 C 5.3 g/m*3 5.4 C 0 km/h
144 27-10-2010 04:39:03 5.4 C 5.23 g/m*3 5.4 C 0 km/h
145 27-10-2010 04:51:03 5.5 C 5.2 g/m*3 5.5 C 0 km/h
146 27-10-2010 05:03:03 5.6 C 5.16 g/m*3 5.6 C 0 km/h
147 27-10-2010 05:15:03 5.7 C 5.12 g/m*3 5.7 C 0 km/h
148 27-10-2010 05:27:03 5.7 C 5.19 g/m*3 5.7 C 0 km/h
149 27-10-2010 05:39:03 5.6 C 5.16 g/m*3 5.6 C 0 km/h
150 27-10-2010 05:51:04 5.6 C 5.16 g/m*3 5.6 C 0 km/h
Sensor: Nr:Datum:Temp:Abs-Feuchte:Windchill:Wind:
Aussen-T/F 151 27-10-2010 06:03:04 5.6 C 5.16 g/m*3 5.6 C 0 km/h
152 27-10-2010 06:15:04 5.7 C 5.19 g/m*3 5.7 C 0 km/h
153 27-10-2010 06:27:04 5.7 C 5.27 g/m*3 5.7 C 0 km/h
154 27-10-2010 06:39:04 5.7 C 5.27 g/m*3 5.7 C 0 km/h
155 27-10-2010 06:51:04 5.7 C 5.19 g/m*3 5.7 C 0 km/h
156 27-10-2010 07:03:04 5.7 C 5.19 g/m*3 5.7 C 0 km/h
157 27-10-2010 07:15:04 5.7 C 5.19 g/m*3 5.7 C 0 km/h
158 27-10-2010 07:27:04 5.7 C 5.19 g/m*3 5.7 C 0 km/h
159 27-10-2010 07:39:03 5.8 C 5.16 g/m*3 5.8 C 0 km/h
160 27-10-2010 07:51:02 5.9 C 5.05 g/m*3 5.9 C 0 km/h
161 27-10-2010 08:03:01 5.9 C 4.98 g/m*3 5.9 C 0 km/h
162 27-10-2010 08:15:02 5.9 C 5.05 g/m*3 5.9 C 0 km/h
163 27-10-2010 08:27:02 5.7 C 5.05 g/m*3 5.7 C 0 km/h
164 27-10-2010 08:39:02 5.5 C 5.13 g/m*3 5.5 C 0 km/h
165 27-10-2010 08:51:02 5.4 C 5.23 g/m*3 5.4 C 0 km/h
166 27-10-2010 09:03:03 5.5 C 5.48 g/m*3 5.5 C 0 km/h
167 27-10-2010 09:15:02 5.6 C 5.51 g/m*3 5.6 C 0 km/h
168 27-10-2010 09:27:02 5.8 C 5.66 g/m*3 5.8 C 0 km/h
169 27-10-2010 09:39:02 6 C 5.73 g/m*3 6 C 0 km/h
170 27-10-2010 09:51:01 6.3 C 5.85 g/m*3 6.3 C 0 km/h
171 27-10-2010 10:03:02 6.5 C 5.85 g/m*3 6.5 C 0 km/h
172 27-10-2010 10:15:01 6.8 C 5.89 g/m*3 6.8 C 0 km/h
173 27-10-2010 10:27:01 7 C 5.89 g/m*3 7 C 0 km/h
174 27-10-2010 10:39:01 7.3 C 5.77 g/m*3 7.3 C 0 km/h
175 27-10-2010 10:51:01 7.4 C 5.57 g/m*3 7.4 C 0 km/h
Sensor: Nr:Datum:Temp:Abs-Feuchte:Windchill:Wind:
Aussen-T/F 176 27-10-2010 11:03:01 7.6 C 5.56 g/m*3 7.6 C 0 km/h
177 27-10-2010 11:15:02 7.8 C 5.55 g/m*3 7.8 C 0 km/h
178 27-10-2010 11:27:02 8.2 C 5.53 g/m*3 8.2 C 0 km/h
179 27-10-2010 11:39:01 8.6 C 5.41 g/m*3 8.6 C 0 km/h
180 27-10-2010 11:51:02 8.9 C 5.17 g/m*3 8.9 C 0 km/h
181 27-10-2010 12:03:01 9.1 C 4.7 g/m*3 9.1 C 0 km/h
182 27-10-2010 12:15:02 9.4 C 4.43 g/m*3 9.4 C 0 km/h
183 27-10-2010 12:27:02 9.5 C 4.37 g/m*3 9.5 C 0 km/h
184 27-10-2010 12:39:01 9.8 C 4.36 g/m*3 9.8 C 0 km/h
185 27-10-2010 12:51:02 10.3 C 4.41 g/m*3 10.3 C 0 km/h
186 27-10-2010 13:03:02 10.7 C 4.22 g/m*3 10.7 C 0 km/h
187 27-10-2010 13:15:02 10.8 C 3.95 g/m*3 10.8 C 0 km/h
188 27-10-2010 13:27:02 11.1 C 3.73 g/m*3 11.1 C 0 km/h
189 27-10-2010 13:39:02 11 C 3.6 g/m*3 11 C 0 km/h
190 27-10-2010 13:51:02 11 C 3.7 g/m*3 11 C 0 km/h
191 27-10-2010 14:03:02 11 C 3.7 g/m*3 11 C 0 km/h
192 27-10-2010 14:15:01 11 C 3.8 g/m*3 11 C 0 km/h
193 27-10-2010 14:27:01 11 C 3.5 g/m*3 11 C 0 km/h
194 27-10-2010 14:39:02 11.1 C 3.63 g/m*3 11.1 C 0 km/h
195 27-10-2010 14:51:02 11.2 C 3.55 g/m*3 11.2 C 0 km/h
196 27-10-2010 15:03:02 11.3 C 3.57 g/m*3 11.3 C 0 km/h
197 27-10-2010 15:15:02 11.5 C 3.51 g/m*3 11.5 C 0 km/h
198 27-10-2010 15:27:02 11.7 C 3.66 g/m*3 11.7 C 0 km/h
199 27-10-2010 15:39:02 11.6 C 3.64 g/m*3 11.6 C 0 km/h
200 27-10-2010 15:51:02 11.7 C 3.35 g/m*3 11.7 C 0 km/h
Sensor: Nr:Datum:Temp:Abs-Feuchte:Windchill:Wind:
Aussen-T/F 201 27-10-2010 16:03:02 11.8 C 3.58 g/m*3 11.8 C 0 km/h
202 27-10-2010 16:15:03 11.9 C 3.39 g/m*3 11.9 C 0 km/h
203 27-10-2010 16:27:03 12.1 C 3.43 g/m*3 12.1 C 0 km/h
204 27-10-2010 16:39:02 12.1 C 3.32 g/m*3 12.1 C 0 km/h
205 27-10-2010 16:51:02 12 C 3.41 g/m*3 12 C 0 km/h
206 27-10-2010 17:03:02 11.9 C 3.6 g/m*3 11.9 C 0 km/h
207 27-10-2010 17:15:02 11.8 C 3.68 g/m*3 11.8 C 0 km/h
208 27-10-2010 17:27:02 11.6 C 3.33 g/m*3 11.6 C 0 km/h
209 27-10-2010 17:39:02 11.5 C 3.51 g/m*3 11.5 C 0 km/h
210 27-10-2010 17:51:02 11.2 C 3.65 g/m*3 11.2 C 0 km/h
211 27-10-2010 18:03:02 10.9 C 4.08 g/m*3 10.9 C 0 km/h
212 27-10-2010 18:15:02 10.6 C 4.2 g/m*3 10.6 C 0 km/h
213 27-10-2010 18:27:03 10.4 C 4.14 g/m*3 10.4 C 0 km/h
214 27-10-2010 18:39:01 10.1 C 4.63 g/m*3 10.1 C 0 km/h
215 27-10-2010 18:51:02 10.2 C 4.28 g/m*3 10.2 C 0 km/h
216 27-10-2010 19:03:01 10.2 C 4.38 g/m*3 10.2 C 0 km/h
217 27-10-2010 19:15:02 10.1 C 4.54 g/m*3 10.1 C 0 km/h
218 27-10-2010 19:27:02 10 C 4.32 g/m*3 10 C 0 km/h
219 27-10-2010 19:39:02 10 C 4.42 g/m*3 10 C 0 km/h
220 27-10-2010 19:51:02 9.9 C 4.39 g/m*3 9.9 C 0 km/h
221 27-10-2010 20:03:02 9.8 C 4.55 g/m*3 9.8 C 0 km/h
222 27-10-2010 20:15:02 9.7 C 4.33 g/m*3 9.7 C 0 km/h
223 27-10-2010 20:27:02 9.9 C 4.48 g/m*3 9.9 C 0 km/h
224 27-10-2010 20:39:02 9.8 C 4.36 g/m*3 9.8 C 0 km/h
225 27-10-2010 20:51:01 9.8 C 4.36 g/m*3 9.8 C 0 km/h
Sensor: Nr:Datum:Temp:Abs-Feuchte:Windchill:Wind:
Aussen-T/F 226 27-10-2010 21:03:02 9.7 C 4.61 g/m*3 9.7 C 0 km/h
227 27-10-2010 21:15:01 9.6 C 4.76 g/m*3 9.6 C 0 km/h
228 27-10-2010 21:27:01 9.6 C 4.49 g/m*3 9.6 C 0 km/h
229 27-10-2010 21:39:02 9.5 C 4.82 g/m*3 9.5 C 0 km/h
230 27-10-2010 21:51:02 9.4 C 4.88 g/m*3 9.4 C 0 km/h
231 27-10-2010 22:03:02 9.3 C 4.94 g/m*3 9.3 C 0 km/h
232 27-10-2010 22:15:01 9.2 C 4.91 g/m*3 9.2 C 0 km/h
233 27-10-2010 22:27:01 9.1 C 4.97 g/m*3 9.1 C 0 km/h
234 27-10-2010 22:39:02 9.2 C 4.91 g/m*3 9.2 C 0 km/h
235 27-10-2010 22:51:01 9.2 C 4.73 g/m*3 9.2 C 0 km/h
236 27-10-2010 23:03:02 9.2 C 4.55 g/m*3 9.2 C 0 km/h
237 27-10-2010 23:15:02 9.1 C 4.88 g/m*3 9.1 C 0 km/h
238 27-10-2010 23:27:02 9 C 4.85 g/m*3 9 C 0 km/h
239 27-10-2010 23:39:02 8.9 C 4.99 g/m*3 8.9 C 0 km/h
240 27-10-2010 23:51:02 8.9 C 4.99 g/m*3 8.9 C 0 km/h
241 28-10-2010 00:03:02 8.8 C 4.79 g/m*3 8.8 C 0 km/h
242 28-10-2010 00:15:02 8.7 C 4.84 g/m*3 8.7 C 0 km/h
243 28-10-2010 00:27:02 8.7 C 4.93 g/m*3 8.7 C 0 km/h
244 28-10-2010 00:39:02 8.6 C 4.9 g/m*3 8.6 C 0 km/h
245 28-10-2010 00:51:01 8.5 C 4.87 g/m*3 8.5 C 0 km/h
246 28-10-2010 01:03:02 8.5 C 4.87 g/m*3 8.5 C 0 km/h
247 28-10-2010 01:15:02 8.5 C 4.87 g/m*3 8.5 C 0 km/h
248 28-10-2010 01:27:02 8.5 C 4.87 g/m*3 8.5 C 0 km/h
249 28-10-2010 01:39:01 8.4 C 4.92 g/m*3 8.4 C 0 km/h
250 28-10-2010 01:51:02 8.4 C 5.01 g/m*3 8.4 C 0 km/h
Sensor: Nr:Datum:Temp:Abs-Feuchte:Windchill:Wind:
Aussen-T/F 251 28-10-2010 02:03:01 8.3 C 4.97 g/m*3 8.3 C 0 km/h
252 28-10-2010 02:15:02 8.1 C 4.99 g/m*3 8.1 C 0 km/h
253 28-10-2010 02:27:02 8 C 5.04 g/m*3 8 C 0 km/h
254 28-10-2010 02:39:02 8 C 5.13 g/m*3 8 C 0 km/h
255 28-10-2010 02:52:04 7.9 C 5.09 g/m*3 7.9 C 0 km/h
256 28-10-2010 03:04:05 7.8 C 4.98 g/m*3 7.8 C 0 km/h
257 28-10-2010 03:16:04 7.5 C 4.8 g/m*3 7.5 C 0 km/h
258 28-10-2010 03:28:04 7.5 C 4.72 g/m*3 7.5 C 0 km/h
259 28-10-2010 03:40:02 7.6 C 4.91 g/m*3 7.6 C 0 km/h
260 28-10-2010 03:52:02 7.7 C 4.87 g/m*3 7.7 C 0 km/h
261 28-10-2010 04:04:02 7.7 C 4.95 g/m*3 7.7 C 0 km/h
262 28-10-2010 04:16:02 7.7 C 5.03 g/m*3 7.7 C 0 km/h
263 28-10-2010 04:28:03 7.6 C 5.08 g/m*3 7.6 C 0 km/h
264 28-10-2010 04:40:01 7.6 C 5.16 g/m*3 7.6 C 0 km/h
265 28-10-2010 04:52:02 7.7 C 5.11 g/m*3 7.7 C 0 km/h
266 28-10-2010 05:04:01 7.6 C 5.08 g/m*3 7.6 C 0 km/h
267 28-10-2010 05:16:01 7.6 C 5.24 g/m*3 7.6 C 0 km/h
268 28-10-2010 05:28:01 7.4 C 5.01 g/m*3 7.4 C 0 km/h
269 28-10-2010 05:40:02 7.4 C 5.01 g/m*3 7.4 C 0 km/h
270 28-10-2010 05:52:02 7.6 C 4.91 g/m*3 7.6 C 0 km/h
271 28-10-2010 06:04:02 7.9 C 4.85 g/m*3 7.9 C 0 km/h
272 28-10-2010 06:16:02 8.1 C 4.33 g/m*3 8.1 C 0 km/h
273 28-10-2010 06:28:02 7.9 C 4.35 g/m*3 7.9 C 0 km/h
274 28-10-2010 06:40:02 7.8 C 4.33 g/m*3 7.8 C 0 km/h
275 28-10-2010 06:52:01 8.2 C 4.19 g/m*3 8.2 C 0 km/h
Sensor: Nr:Datum:Temp:Abs-Feuchte:Windchill:Wind:
Aussen-T/F 276 28-10-2010 07:04:02 8.4 C 4.24 g/m*3 8.4 C 0 km/h
277 28-10-2010 07:16:01 8.5 C 4.27 g/m*3 8.5 C 0 km/h
278 28-10-2010 07:28:01 8.6 C 4.38 g/m*3 8.6 C 0 km/h
279 28-10-2010 07:40:01 8.4 C 4.33 g/m*3 8.4 C 0 km/h
280 28-10-2010 07:52:01 8.5 C 4.35 g/m*3 8.5 C 0 km/h
281 28-10-2010 08:04:02 8.7 C 4.5 g/m*3 8.7 C 0 km/h
282 28-10-2010 08:16:01 8.7 C 4.58 g/m*3 8.7 C 0 km/h
283 28-10-2010 08:28:01 8.6 C 4.73 g/m*3 8.6 C 0 km/h
284 28-10-2010 08:40:01 8.7 C 4.76 g/m*3 8.7 C 0 km/h
285 28-10-2010 08:52:02 8.8 C 4.79 g/m*3 8.8 C 0 km/h
286 28-10-2010 09:04:01 9 C 4.58 g/m*3 9 C 0 km/h
287 28-10-2010 09:16:02 9.2 C 4.46 g/m*3 9.2 C 0 km/h
288 28-10-2010 09:28:02 8.9 C 4.99 g/m*3 8.9 C 0 km/h
289 28-10-2010 09:40:01 8.6 C 5.24 g/m*3 8.6 C 0 km/h
290 28-10-2010 09:52:02 8.6 C 5.24 g/m*3 8.6 C 0 km/h
291 28-10-2010 10:04:02 8.1 C 5.66 g/m*3 8.1 C 0 km/h
292 28-10-2010 10:16:02 7.7 C 6 g/m*3 7.7 C 0 km/h
293 28-10-2010 10:28:02 7.7 C 6.32 g/m*3 7.7 C 0 km/h
294 28-10-2010 10:40:02 7.9 C 6.32 g/m*3 7.9 C 0 km/h
295 28-10-2010 10:52:02 8.1 C 6.16 g/m*3 8.1 C 0 km/h
296 28-10-2010 11:04:02 8.6 C 6.02 g/m*3 8.6 C 0 km/h
297 28-10-2010 11:16:01 9.3 C 6.11 g/m*3 9.3 C 0 km/h
298 28-10-2010 11:28:01 10 C 6.11 g/m*3 10 C 0 km/h
299 28-10-2010 11:40:02 10.2 C 5.8 g/m*3 10.2 C 0 km/h
300 28-10-2010 11:52:02 10.4 C 5.78 g/m*3 10.4 C 0 km/h
Sensor: Nr:Datum:Temp:Abs-Feuchte:Windchill:Wind:
Aussen-T/F 301 28-10-2010 12:04:02 10.4 C 5.59 g/m*3 10.4 C 0 km/h
302 28-10-2010 12:16:02 10.8 C 5.83 g/m*3 10.8 C 0 km/h
303 28-10-2010 12:28:02 10.7 C 5.8 g/m*3 10.7 C 0 km/h
304 28-10-2010 12:40:02 10.7 C 5.89 g/m*3 10.7 C 0 km/h
305 28-10-2010 12:52:02 11 C 5.81 g/m*3 11 C 0 km/h
306 28-10-2010 13:04:03 11.2 C 5.68 g/m*3 11.2 C 0 km/h
307 28-10-2010 13:16:02 10.9 C 5.67 g/m*3 10.9 C 0 km/h
308 28-10-2010 13:28:02 11.2 C 5.68 g/m*3 11.2 C 0 km/h
309 28-10-2010 13:40:02 11.6 C 5.72 g/m*3 11.6 C 0 km/h
310 28-10-2010 13:52:01 11.8 C 5.68 g/m*3 11.8 C 0 km/h
311 28-10-2010 14:04:02 11.9 C 5.72 g/m*3 11.9 C 0 km/h
312 28-10-2010 14:16:01 12 C 5.65 g/m*3 12 C 0 km/h
313 28-10-2010 14:28:01 12.4 C 5.68 g/m*3 12.4 C 0 km/h
314 28-10-2010 14:40:01 12.4 C 5.57 g/m*3 12.4 C 0 km/h
315 28-10-2010 14:52:01 12.8 C 5.71 g/m*3 12.8 C 0 km/h
316 28-10-2010 15:04:02 13.1 C 5.59 g/m*3 13.1 C 0 km/h
317 28-10-2010 15:16:01 12.6 C 5.53 g/m*3 12.6 C 0 km/h
318 28-10-2010 15:28:01 12.7 C 5.68 g/m*3 12.7 C 0 km/h
319 28-10-2010 15:40:01 12.6 C 5.75 g/m*3 12.6 C 0 km/h
320 28-10-2010 15:52:01 12.6 C 5.75 g/m*3 12.6 C 0 km/h
321 28-10-2010 16:04:02 11.9 C 5.93 g/m*3 11.9 C 0 km/h
322 28-10-2010 16:16:02 11.6 C 6.03 g/m*3 11.6 C 0 km/h
323 28-10-2010 16:28:02 11.5 C 6.2 g/m*3 11.5 C 0 km/h
324 28-10-2010 16:40:01 11.5 C 6.2 g/m*3 11.5 C 0 km/h
325 28-10-2010 16:52:01 11.6 C 6.24 g/m*3 11.6 C 0 km/h
Sensor: Nr:Datum:Temp:Abs-Feuchte:Windchill:Wind:
Aussen-T/F 326 28-10-2010 17:04:01 11.6 C 6.24 g/m*3 11.6 C 0 km/h
327 28-10-2010 17:16:02 11.5 C 6.2 g/m*3 11.5 C 0 km/h
328 28-10-2010 17:28:02 11.1 C 6.04 g/m*3 11.1 C 0 km/h
329 28-10-2010 17:40:01 10.7 C 6.09 g/m*3 10.7 C 0 km/h
330 28-10-2010 17:52:03 10.5 C 6.11 g/m*3 10.5 C 0 km/h
331 28-10-2010 18:04:02 10.2 C 6.09 g/m*3 10.2 C 0 km/h
332 28-10-2010 18:16:02 10 C 6.11 g/m*3 10 C 0 km/h
333 28-10-2010 18:28:02 10 C 6.11 g/m*3 10 C 0 km/h
334 28-10-2010 18:40:02 9.7 C 6.18 g/m*3 9.7 C 0 km/h
335 28-10-2010 18:52:02 9.4 C 6.15 g/m*3 9.4 C 0 km/h
336 28-10-2010 19:04:02 9.2 C 6.25 g/m*3 9.2 C 0 km/h
337 28-10-2010 19:16:02 9.2 C 6.25 g/m*3 9.2 C 0 km/h
338 28-10-2010 19:28:02 9.2 C 6.25 g/m*3 9.2 C 0 km/h
339 28-10-2010 19:40:02 9.2 C 6.25 g/m*3 9.2 C 0 km/h
340 28-10-2010 19:52:02 9.1 C 6.12 g/m*3 9.1 C 0 km/h
341 28-10-2010 20:04:01 9.2 C 6.25 g/m*3 9.2 C 0 km/h
342 28-10-2010 20:16:02 9.2 C 6.25 g/m*3 9.2 C 0 km/h
343 28-10-2010 20:28:02 9 C 6.17 g/m*3 9 C 0 km/h
344 28-10-2010 20:40:02 8.9 C 6.31 g/m*3 8.9 C 0 km/h
345 28-10-2010 20:52:02 8.7 C 6.23 g/m*3 8.7 C 0 km/h
346 28-10-2010 21:04:03 8.6 C 6.27 g/m*3 8.6 C 0 km/h
347 28-10-2010 21:16:02 8.6 C 6.36 g/m*3 8.6 C 0 km/h
348 28-10-2010 21:28:02 8.5 C 6.32 g/m*3 8.5 C 0 km/h
349 28-10-2010 21:40:02 8.1 C 6.16 g/m*3 8.1 C 0 km/h
350 28-10-2010 21:52:01 8.1 C 6.41 g/m*3 8.1 C 0 km/h
Sensor: Nr:Datum:Temp:Abs-Feuchte:Windchill:Wind:
Aussen-T/F 351 28-10-2010 22:04:02 7.7 C 6.32 g/m*3 7.7 C 0 km/h
352 28-10-2010 22:16:01 7.6 C 6.36 g/m*3 7.6 C 0 km/h
353 28-10-2010 22:28:01 7.9 C 6.57 g/m*3 7.9 C 0 km/h
354 28-10-2010 22:40:02 7.4 C 6.28 g/m*3 7.4 C 0 km/h
355 28-10-2010 22:52:01 7.2 C 6.28 g/m*3 7.2 C 0 km/h
356 28-10-2010 23:04:02 7 C 6.28 g/m*3 7 C 0 km/h
357 28-10-2010 23:16:01 6.9 C 6.31 g/m*3 6.9 C 0 km/h
358 28-10-2010 23:28:01 6.8 C 6.35 g/m*3 6.8 C 0 km/h
359 28-10-2010 23:40:02 6.7 C 6.38 g/m*3 6.7 C 0 km/h
360 28-10-2010 23:52:01 6.5 C 6.3 g/m*3 6.5 C 0 km/h

Legende:
   Min
   Max


Maximal/Minimal-Werte vom 26.10.2010 - 28.10.2010

Sensor Min Max Avg
Temp
(Aussen-T/F)
-0.5 °C
26-10-2010  07:38:01
13.1 °C
28-10-2010  15:04:02
6.98 °C
Abs-Feuchte
(Aussen-T/F)
3.32 g/m*3
27-10-2010  16:39:02
6.57 g/m*3
28-10-2010  22:28:01
5.1 g/m*3
Windchill
(Aussen-T/F)
-0.5 C
26-10-2010  07:38:01
13.1 C
28-10-2010  15:04:02
6.96 C

Die Daten stammen von einer Davis Vantage Pro 2 Wetter-Station und werden unter Linux mit der Software wview2wettercgi und aufbereitet. Alle Angaben erfolgen ohne Gewähr für ihre Vollständigkeit oder Richtigkeit.
Kontakt: Rainer Krienke krienke@uni-koblenz.de . Meine Webseiten an der Uni Koblenz oder privat.
Version: $Revision: 0.78 $